Time;durP1;ratioP1;P1;durP2;ratioP2;P2;SDS_P1;SDS_P2;PMS_P1;PMS_P2;Temp;Humidity;BMP_temperature;BMP_pressure;BME280_temperature;BME280_humidity;BME280_pressure;Samples;Min_cycle;Max_cycle;Signal;HPM_P1;HPM_P2
2022/12/10 00:54:32;;;;;;;0.50;0.50;;;5.20;99.90;;;;;;6159135;22;2955655;-92
2022/12/10 00:57:04;;;;;;;0.67;0.60;;;5.10;99.90;;;;;;6307016;22;20185;-94
2022/12/10 00:59:37;;;;;;;0.60;0.40;;;5.10;99.90;;;;;;6280125;22;20162;-94
2022/12/10 01:02:09;;;;;;;2.17;0.60;;;5.10;99.90;;;;;;6305562;22;20204;-95
2022/12/10 01:04:48;;;;;;;0.67;0.40;;;5.10;99.90;;;;;;6305034;22;20257;-95
2022/12/10 01:07:33;;;;;;;0.83;0.40;;;5.00;99.90;;;;;;6308830;22;20174;-96
2022/12/10 01:18:14;;;;;;;1.80;0.40;;;4.90;99.90;;;;;;6234893;22;20214;-92
2022/12/10 01:28:52;;;;;;;0.40;0.40;;;4.60;99.90;;;;;;6244067;22;20234;-90
2022/12/10 01:31:27;;;;;;;0.70;0.40;;;4.60;99.90;;;;;;6274612;23;20516;-90
2022/12/10 01:34:01;;;;;;;1.30;0.40;;;4.50;99.90;;;;;;6275962;22;20535;-90
2022/12/10 01:36:35;;;;;;;0.30;0.30;;;4.50;99.90;;;;;;6270376;22;20241;-90
2022/12/10 01:39:09;;;;;;;0.90;0.40;;;4.50;99.90;;;;;;6269339;22;20191;-90
2022/12/10 01:41:44;;;;;;;0.70;0.40;;;4.40;99.90;;;;;;6268734;22;20195;-89
2022/12/10 01:44:51;;;;;;;0.73;0.40;;;4.40;99.90;;;;;;6267437;22;20183;-90
2022/12/10 01:47:23;;;;;;;0.93;0.47;;;4.40;99.90;;;;;;6268019;23;20229;-90
2022/12/10 01:49:56;;;;;;;0.90;0.40;;;4.40;99.90;;;;;;6268948;22;20210;-90
2022/12/10 01:52:28;;;;;;;1.10;0.43;;;4.30;99.90;;;;;;6265707;22;20273;-89
2022/12/10 01:54:59;;;;;;;1.03;0.70;;;4.30;99.90;;;;;;6256981;23;20231;-90
2022/12/10 01:57:31;;;;;;;1.17;0.57;;;4.30;99.90;;;;;;6261232;23;20164;-89
2022/12/10 02:00:06;;;;;;;0.80;0.47;;;4.20;99.90;;;;;;6262079;22;20210;-90
2022/12/10 02:02:44;;;;;;;3.60;0.50;;;4.20;99.90;;;;;;6261654;22;20236;-90
2022/12/10 02:05:28;;;;;;;1.80;0.60;;;4.20;99.90;;;;;;6260268;22;20640;-90
2022/12/10 02:08:08;;;;;;;3.40;0.40;;;4.10;99.90;;;;;;6261603;22;20254;-91
2022/12/10 02:10:52;;;;;;;2.87;0.50;;;4.10;99.90;;;;;;6261240;22;20167;-91
2022/12/10 02:13:29;;;;;;;0.80;0.50;;;4.00;99.90;;;;;;6262120;22;20202;-90
2022/12/10 02:16:06;;;;;;;0.70;0.70;;;3.90;99.90;;;;;;6259895;22;20246;-91
2022/12/10 02:18:43;;;;;;;0.67;0.40;;;3.90;99.90;;;;;;6260568;22;20170;-91
2022/12/10 02:21:20;;;;;;;0.30;0.30;;;3.90;99.90;;;;;;6255606;22;20195;-91
2022/12/10 02:23:56;;;;;;;2.43;0.50;;;3.80;99.90;;;;;;6258159;22;20215;-90
2022/12/10 02:26:35;;;;;;;0.30;0.30;;;3.80;99.90;;;;;;6260670;22;20250;-90
2022/12/10 02:29:15;;;;;;;0.40;0.40;;;3.80;99.90;;;;;;6261570;22;20584;-91
2022/12/10 02:31:55;;;;;;;0.70;0.40;;;3.80;99.90;;;;;;6259544;23;20168;-92
2022/12/10 02:34:30;;;;;;;0.30;0.30;;;3.80;99.90;;;;;;6258340;22;20175;-90
2022/12/10 02:37:05;;;;;;;0.30;0.30;;;3.80;99.90;;;;;;6258865;22;20163;-91
2022/12/10 02:39:40;;;;;;;1.23;0.33;;;3.80;99.90;;;;;;6260717;22;20202;-90
2022/12/10 02:42:13;;;;;;;0.30;0.30;;;3.70;99.90;;;;;;6261302;23;20187;-92
2022/12/10 02:44:48;;;;;;;0.30;0.30;;;3.70;99.90;;;;;;6260201;22;20214;-91
2022/12/10 02:47:19;;;;;;;0.23;0.23;;;3.70;99.90;;;;;;6261008;22;20246;-92
2022/12/10 02:49:55;;;;;;;0.40;0.40;;;3.70;99.90;;;;;;6257456;22;20171;-91
2022/12/10 02:52:27;;;;;;;0.60;0.30;;;3.60;99.90;;;;;;6258938;23;20251;-92
2022/12/10 02:54:57;;;;;;;0.73;0.40;;;3.60;99.90;;;;;;6259858;22;20228;-90
2022/12/10 02:57:37;;;;;;;0.60;0.40;;;3.60;99.90;;;;;;6258013;22;20295;-91
2022/12/10 03:00:16;;;;;;;1.20;0.37;;;3.60;99.90;;;;;;6255738;23;20176;-90
2022/12/10 03:03:12;;;;;;;0.40;0.40;;;3.60;99.90;;;;;;6255060;23;20254;-90
2022/12/10 03:05:50;;;;;;;0.37;0.27;;;3.60;99.90;;;;;;6257986;22;20190;-90
2022/12/10 03:08:29;;;;;;;0.83;0.30;;;3.60;99.90;;;;;;6261889;23;20199;-91
2022/12/10 03:11:06;;;;;;;0.90;0.40;;;3.60;99.90;;;;;;6257643;23;20629;-91
2022/12/10 03:13:42;;;;;;;1.90;0.50;;;3.60;99.90;;;;;;6257217;23;20164;-90
2022/12/10 03:16:25;;;;;;;0.30;0.30;;;3.60;99.90;;;;;;6258264;23;20194;-91
2022/12/10 03:19:01;;;;;;;2.40;0.40;;;3.60;99.90;;;;;;6259017;22;20167;-92
2022/12/10 03:21:37;;;;;;;0.40;0.33;;;3.60;99.90;;;;;;6264950;23;20215;-91
2022/12/10 03:24:10;;;;;;;0.33;0.30;;;3.60;99.90;;;;;;6255340;22;20246;-91
2022/12/10 03:26:42;;;;;;;0.20;0.20;;;3.60;99.90;;;;;;6262116;22;20201;-91
2022/12/10 03:29:17;;;;;;;4.83;0.43;;;3.60;99.90;;;;;;6272407;22;20187;-91
2022/12/10 03:32:00;;;;;;;0.20;0.20;;;3.60;99.90;;;;;;6256882;22;21109;-90
2022/12/10 03:34:31;;;;;;;0.50;0.30;;;3.60;99.90;;;;;;6212262;23;20233;-87
2022/12/10 03:37:03;;;;;;;2.67;0.23;;;3.60;99.90;;;;;;6212794;23;20205;-93
2022/12/10 03:39:34;;;;;;;0.20;0.20;;;3.60;99.90;;;;;;6212948;23;20193;-90
2022/12/10 03:42:07;;;;;;;0.27;0.20;;;3.60;99.90;;;;;;6186816;23;20686;-89
2022/12/10 03:44:40;;;;;;;0.20;0.20;;;3.60;99.90;;;;;;6211498;23;20197;-93
2022/12/10 03:47:16;;;;;;;0.20;0.20;;;3.60;99.90;;;;;;6206678;23;20180;-90
2022/12/10 03:49:47;;;;;;;0.20;0.20;;;3.60;99.90;;;;;;6205991;23;20179;-91
2022/12/10 03:52:18;;;;;;;0.40;0.40;;;3.60;99.90;;;;;;6179163;23;20240;-91
2022/12/10 03:54:50;;;;;;;0.33;0.33;;;3.50;99.90;;;;;;6204260;23;20244;-90
2022/12/10 04:00:19;;;;;;;0.20;0.20;;;3.60;99.90;;;;;;6204138;23;20208;-90
2022/12/10 04:02:52;;;;;;;0.40;0.40;;;3.50;99.90;;;;;;6202202;23;20183;-89
2022/12/10 04:05:23;;;;;;;0.20;0.20;;;3.50;99.90;;;;;;6203759;23;20220;-91
2022/12/10 04:07:54;;;;;;;2.37;0.33;;;3.50;99.90;;;;;;6203108;23;20201;-91
2022/12/10 04:10:26;;;;;;;0.43;0.20;;;3.50;99.90;;;;;;6204657;23;20180;-91
2022/12/10 04:18:31;;;;;;;0.97;0.23;;;3.50;99.90;;;;;;6204093;23;20200;-91
2022/12/10 04:26:55;;;;;;;0.67;0.30;;;3.50;99.90;;;;;;6164493;23;20201;-92
2022/12/10 04:29:28;;;;;;;0.70;0.20;;;3.50;99.90;;;;;;6201446;23;20248;-91
2022/12/10 04:32:00;;;;;;;0.40;0.30;;;3.60;99.90;;;;;;6198050;23;20706;-91
2022/12/10 04:34:34;;;;;;;0.73;0.20;;;3.60;99.90;;;;;;6200962;23;20201;-91
2022/12/10 04:37:05;;;;;;;0.20;0.20;;;3.60;99.90;;;;;;6202509;23;20177;-90
2022/12/10 04:39:36;;;;;;;0.73;0.30;;;3.50;99.90;;;;;;6200990;23;20190;-91
2022/12/10 04:42:09;;;;;;;0.17;0.17;;;3.50;99.90;;;;;;6203559;23;20240;-91
2022/12/10 04:44:39;;;;;;;2.00;1.13;;;3.50;99.90;;;;;;6206869;23;20181;-90
2022/12/10 04:47:11;;;;;;;0.50;0.20;;;3.60;99.90;;;;;;6209569;23;20173;-91
2022/12/10 04:49:44;;;;;;;1.47;0.30;;;3.50;99.90;;;;;;6208922;23;20189;-91
2022/12/10 04:52:17;;;;;;;0.73;0.27;;;3.60;99.90;;;;;;6203629;23;20221;-91
2022/12/10 04:54:48;;;;;;;2.87;0.20;;;3.60;99.90;;;;;;6203242;23;20165;-92
2022/12/10 04:57:19;;;;;;;0.53;0.30;;;3.50;99.90;;;;;;6196987;23;20249;-91
2022/12/10 04:59:51;;;;;;;0.33;0.20;;;3.50;99.90;;;;;;6199730;23;20221;-90
2022/12/10 05:02:23;;;;;;;0.23;0.23;;;3.60;99.90;;;;;;6203885;23;20251;-91
2022/12/10 05:04:57;;;;;;;1.67;0.30;;;3.60;99.90;;;;;;6176755;23;20748;-90
2022/12/10 05:07:28;;;;;;;0.47;0.40;;;3.50;99.90;;;;;;6200542;23;20170;-91
2022/12/10 05:10:00;;;;;;;0.40;0.30;;;3.50;99.90;;;;;;6202963;23;20203;-92
2022/12/10 05:12:32;;;;;;;0.20;0.20;;;3.50;99.90;;;;;;6175621;23;20258;-90
2022/12/10 05:15:03;;;;;;;0.60;0.20;;;3.50;99.90;;;;;;6193676;23;20209;-90
2022/12/10 05:17:35;;;;;;;0.40;0.40;;;3.50;99.90;;;;;;6191171;23;20185;-92
2022/12/10 05:20:10;;;;;;;0.77;0.30;;;3.50;99.90;;;;;;6191189;23;20249;-92
2022/12/10 05:25:52;;;;;;;0.53;0.30;;;3.50;99.90;;;;;;6130542;23;20216;-89
2022/12/10 05:28:24;;;;;;;0.60;0.30;;;3.50;99.90;;;;;;6183488;23;20181;-92
2022/12/10 05:30:55;;;;;;;0.50;0.20;;;3.50;99.90;;;;;;6194117;23;20244;-93
2022/12/10 05:33:26;;;;;;;0.30;0.20;;;3.50;99.90;;;;;;6191778;23;20189;-89
2022/12/10 05:36:00;;;;;;;3.37;0.30;;;3.50;99.90;;;;;;6192965;23;20248;-90
2022/12/10 05:38:34;;;;;;;1.17;0.30;;;3.50;99.90;;;;;;6195097;23;20225;-89
2022/12/10 05:41:06;;;;;;;0.20;0.20;;;3.50;99.90;;;;;;6195638;23;20703;-90
2022/12/10 05:43:37;;;;;;;3.03;0.30;;;3.60;99.90;;;;;;6192191;23;20181;-89
2022/12/10 05:46:12;;;;;;;0.27;0.27;;;3.50;99.90;;;;;;6193359;23;20203;-90
2022/12/10 05:48:44;;;;;;;0.20;0.20;;;3.50;99.90;;;;;;6193222;23;20169;-90
2022/12/10 05:51:19;;;;;;;0.30;0.30;;;3.50;99.90;;;;;;6192924;23;20197;-92
2022/12/10 05:53:50;;;;;;;0.30;0.20;;;3.60;99.90;;;;;;6192285;23;20172;-90
2022/12/10 05:56:23;;;;;;;0.20;0.20;;;3.60;99.90;;;;;;6208282;23;20185;-90
2022/12/10 05:58:56;;;;;;;0.20;0.20;;;3.60;99.90;;;;;;6211787;22;20216;-92
2022/12/10 06:01:29;;;;;;;0.67;0.40;;;3.60;99.90;;;;;;6211289;23;20173;-91
2022/12/10 06:04:00;;;;;;;0.17;0.17;;;3.60;99.90;;;;;;6206957;23;20462;-89
2022/12/10 06:06:35;;;;;;;0.20;0.20;;;3.60;99.90;;;;;;6207433;23;20216;-90
2022/12/10 06:09:08;;;;;;;0.30;0.30;;;3.60;99.90;;;;;;6202166;23;20208;-90
2022/12/10 06:11:39;;;;;;;0.10;0.10;;;3.60;99.90;;;;;;6197440;23;20237;-91
2022/12/10 06:14:11;;;;;;;0.10;0.10;;;3.60;99.90;;;;;;6167469;23;20627;-90
2022/12/10 06:16:43;;;;;;;3.70;0.20;;;3.70;99.90;;;;;;6194883;23;20204;-89
2022/12/10 06:19:14;;;;;;;0.20;0.20;;;3.70;99.90;;;;;;6192767;23;20219;-89
2022/12/10 06:21:47;;;;;;;0.10;0.10;;;3.70;99.90;;;;;;6191510;23;20281;-89
2022/12/10 06:24:18;;;;;;;0.30;0.30;;;3.80;99.90;;;;;;6193103;23;20262;-89
2022/12/10 06:26:49;;;;;;;0.57;0.30;;;3.70;99.90;;;;;;6166557;23;20169;-89
2022/12/10 06:29:24;;;;;;;0.30;0.30;;;3.80;99.90;;;;;;6194031;23;20176;-89
2022/12/10 06:31:55;;;;;;;0.10;0.10;;;3.80;99.90;;;;;;6194436;23;20166;-90
2022/12/10 06:34:26;;;;;;;0.27;0.27;;;3.80;99.90;;;;;;6191356;23;20679;-89
2022/12/10 06:36:58;;;;;;;1.13;0.20;;;3.80;99.90;;;;;;6192088;23;20169;-90
2022/12/10 06:39:30;;;;;;;0.17;0.17;;;3.80;99.90;;;;;;6199141;23;20181;-90
2022/12/10 06:42:01;;;;;;;0.30;0.30;;;3.80;99.90;;;;;;6194188;23;20181;-88
2022/12/10 06:44:31;;;;;;;0.30;0.20;;;3.90;99.90;;;;;;6174253;23;20170;-89
2022/12/10 06:47:02;;;;;;;0.80;0.20;;;3.90;99.90;;;;;;6192472;23;20170;-90
2022/12/10 06:49:34;;;;;;;0.50;0.30;;;3.90;99.90;;;;;;6200488;23;20215;-89
2022/12/10 06:52:07;;;;;;;0.20;0.20;;;3.90;99.90;;;;;;6199695;23;20211;-90
2022/12/10 06:54:38;;;;;;;0.80;0.20;;;3.90;99.90;;;;;;6201543;23;20176;-89
2022/12/10 06:57:09;;;;;;;0.33;0.20;;;4.00;99.90;;;;;;6199456;23;20169;-89
2022/12/10 06:59:41;;;;;;;0.40;0.20;;;4.00;99.90;;;;;;6194658;23;20177;-88
2022/12/10 07:02:12;;;;;;;0.40;0.30;;;4.00;99.90;;;;;;6195730;23;20233;-89
2022/12/10 07:04:43;;;;;;;0.20;0.20;;;4.00;99.90;;;;;;6200321;23;20181;-89
2022/12/10 07:07:15;;;;;;;0.33;0.20;;;4.00;99.90;;;;;;6197848;23;20217;-89
2022/12/10 07:09:46;;;;;;;0.17;0.17;;;4.00;99.90;;;;;;6191743;23;20264;-89
2022/12/10 07:12:17;;;;;;;0.70;0.13;;;4.00;99.90;;;;;;6193613;23;20612;-89
2022/12/10 07:14:48;;;;;;;0.50;0.20;;;4.00;99.90;;;;;;6165568;23;20169;-90
2022/12/10 07:17:19;;;;;;;0.20;0.20;;;4.00;99.90;;;;;;6190802;23;20254;-89
2022/12/10 07:19:50;;;;;;;0.33;0.30;;;4.10;99.90;;;;;;6191020;23;20169;-89
2022/12/10 07:22:23;;;;;;;1.30;0.30;;;4.00;99.90;;;;;;6190822;23;20184;-90
2022/12/10 07:24:54;;;;;;;1.27;0.20;;;4.00;99.90;;;;;;6191289;23;20169;-89
2022/12/10 07:27:25;;;;;;;0.20;0.20;;;4.00;99.90;;;;;;6191818;23;20200;-89
2022/12/10 07:29:57;;;;;;;0.30;0.30;;;4.00;99.90;;;;;;6193315;23;20170;-88
2022/12/10 07:32:29;;;;;;;1.40;0.23;;;4.00;99.90;;;;;;6195344;23;20197;-90
2022/12/10 07:35:01;;;;;;;1.07;0.20;;;4.00;99.90;;;;;;6191029;23;20188;-89
2022/12/10 07:37:34;;;;;;;0.73;0.37;;;4.00;99.90;;;;;;6190199;23;20252;-89
2022/12/10 07:40:07;;;;;;;0.87;0.20;;;4.00;99.90;;;;;;6191988;23;20166;-88
2022/12/10 07:42:39;;;;;;;0.10;0.10;;;4.00;99.90;;;;;;6194124;23;20503;-88
2022/12/10 07:45:11;;;;;;;0.40;0.20;;;4.00;99.90;;;;;;6191073;23;20252;-88
2022/12/10 07:47:42;;;;;;;0.57;0.20;;;4.10;99.90;;;;;;6191363;23;20195;-88
2022/12/10 07:50:12;;;;;;;0.20;0.20;;;4.00;99.90;;;;;;6194047;23;20165;-89
2022/12/10 07:52:45;;;;;;;0.20;0.20;;;4.00;99.90;;;;;;6190621;23;20287;-92
2022/12/10 07:55:16;;;;;;;0.20;0.20;;;4.00;99.90;;;;;;6194464;23;20196;-91
2022/12/10 07:57:47;;;;;;;0.20;0.20;;;4.10;99.90;;;;;;6201252;23;20216;-91
2022/12/10 08:00:19;;;;;;;0.20;0.20;;;4.00;99.90;;;;;;6192934;23;20606;-88
2022/12/10 08:02:51;;;;;;;0.10;0.10;;;4.00;99.90;;;;;;6191383;23;20248;-88
2022/12/10 08:05:22;;;;;;;0.63;0.20;;;4.00;99.90;;;;;;6191903;23;20193;-88
2022/12/10 08:07:54;;;;;;;0.20;0.20;;;4.00;99.90;;;;;;6191588;23;20558;-87
2022/12/10 08:10:35;;;;;;;2.00;0.20;;;4.00;99.90;;;;;;6192160;23;20180;-88
2022/12/10 08:13:06;;;;;;;2.00;0.30;;;4.00;99.90;;;;;;6206288;23;20184;-89
2022/12/10 08:15:38;;;;;;;1.40;0.20;;;4.10;99.90;;;;;;6212135;23;20192;-88
2022/12/10 08:18:09;;;;;;;0.23;0.23;;;4.00;99.90;;;;;;6206786;23;20192;-87
2022/12/10 08:20:40;;;;;;;0.20;0.20;;;4.00;99.90;;;;;;6167837;23;20176;-88
2022/12/10 08:23:13;;;;;;;0.47;0.27;;;4.00;99.90;;;;;;6200077;23;20225;-87
2022/12/10 08:25:44;;;;;;;0.20;0.20;;;4.10;99.90;;;;;;6192270;23;20284;-88
2022/12/10 08:28:15;;;;;;;0.13;0.13;;;4.00;99.90;;;;;;6191434;23;20616;-87
2022/12/10 08:30:48;;;;;;;0.33;0.20;;;4.00;99.90;;;;;;6192028;23;20169;-89
2022/12/10 08:33:19;;;;;;;0.10;0.10;;;4.10;99.90;;;;;;6190464;23;20176;-88
2022/12/10 08:35:51;;;;;;;0.20;0.20;;;4.10;99.90;;;;;;6166406;23;20227;-87
2022/12/10 08:38:23;;;;;;;0.33;0.20;;;4.10;99.90;;;;;;6191800;23;20172;-90
2022/12/10 08:40:53;;;;;;;0.20;0.20;;;4.00;99.90;;;;;;6191910;23;20289;-88
